Time;durP1;ratioP1;P1;durP2;ratioP2;P2;SDS_P1;SDS_P2;PMS_P1;PMS_P2;Temp;Humidity;BMP_temperature;BMP_pressure;BME280_temperature;BME280_humidity;BME280_pressure;Samples;Min_cycle;Max_cycle;Signal;HPM_P1;HPM_P2
2022/09/14 00:01:08;;;;;;;4.63;2.40;;;;;;;10.56;100.00;99965.16;4996884;28;20744;-80
2022/09/14 00:04:02;;;;;;;3.45;2.05;;;;;;;10.51;100.00;99959.19;5006295;28;20041;-81
2022/09/14 00:06:29;;;;;;;4.43;2.15;;;;;;;10.57;100.00;99966.91;4963958;28;20053;-81
2022/09/14 00:08:57;;;;;;;4.45;2.03;;;;;;;10.52;100.00;99958.28;4984259;28;20034;-81
2022/09/14 00:11:26;;;;;;;3.10;2.80;;;;;;;10.53;100.00;99951.22;4972356;28;20049;-81
2022/09/14 00:13:53;;;;;;;2.67;2.03;;;;;;;10.50;100.00;99949.50;4980093;28;20508;-81
2022/09/14 00:16:26;;;;;;;2.88;1.90;;;;;;;10.41;100.00;99948.03;5024533;28;20484;-79
2022/09/14 00:18:55;;;;;;;3.65;2.58;;;;;;;10.40;100.00;99953.34;4964288;28;20405;-81
2022/09/14 00:21:22;;;;;;;3.30;2.00;;;;;;;10.35;100.00;99944.72;4979255;28;20046;-80
2022/09/14 00:23:49;;;;;;;5.30;3.00;;;;;;;10.31;100.00;99948.34;4967935;28;20041;-80
2022/09/14 00:26:21;;;;;;;3.22;2.38;;;;;;;10.35;100.00;99944.72;4977178;28;20088;-80
2022/09/14 00:28:50;;;;;;;3.45;2.05;;;;;;;10.26;100.00;99942.38;4960559;28;20039;-80
2022/09/14 00:31:18;;;;;;;3.15;2.00;;;;;;;10.24;100.00;99937.13;4961070;28;20454;-81
2022/09/14 00:33:46;;;;;;;3.85;2.10;;;;;;;10.24;100.00;99934.47;4994069;28;20062;-80
2022/09/14 00:36:16;;;;;;;3.35;2.47;;;;;;;10.19;100.00;99939.03;4959489;28;20438;-82
2022/09/14 00:38:44;;;;;;;4.13;2.47;;;;;;;10.19;100.00;99932.88;4977099;28;20496;-82
2022/09/14 00:41:14;;;;;;;4.43;2.30;;;;;;;10.20;100.00;99934.59;4950579;28;20471;-82
2022/09/14 00:43:57;;;;;;;3.78;2.35;;;;;;;10.13;100.00;99932.13;4991978;28;20181;-81
2022/09/14 00:46:30;;;;;;;4.13;2.17;;;;;;;10.09;100.00;99924.38;4961058;28;20043;-81
2022/09/14 00:49:01;;;;;;;3.05;1.83;;;;;;;10.05;100.00;99928.00;4972806;28;20046;-82
2022/09/14 00:51:31;;;;;;;3.60;1.88;;;;;;;10.08;100.00;99927.91;4996234;28;20049;-82
2022/09/14 00:54:02;;;;;;;6.18;2.45;;;;;;;9.98;100.00;99929.09;4959940;28;20043;-81
2022/09/14 00:56:29;;;;;;;3.00;1.90;;;;;;;9.99;100.00;99926.41;4994983;28;20073;-81
2022/09/14 00:58:57;;;;;;;2.90;2.20;;;;;;;9.98;100.00;99932.59;4976305;28;20046;-81
2022/09/14 01:01:25;;;;;;;2.10;1.83;;;;;;;10.00;100.00;99929.91;4971203;28;20129;-82
2022/09/14 01:03:51;;;;;;;3.25;2.17;;;;;;;9.99;100.00;99936.97;4971378;28;20042;-82
2022/09/14 01:06:49;;;;;;;2.75;1.88;;;;;;;9.93;100.00;99925.75;4968142;28;20046;-81
2022/09/14 01:09:35;;;;;;;3.85;2.72;;;;;;;9.90;100.00;99921.41;4966455;28;20050;-81
2022/09/14 01:12:43;;;;;;;2.75;1.80;;;;;;;9.87;100.00;99924.13;4991873;28;20041;-81
2022/09/14 01:15:33;;;;;;;2.88;2.13;;;;;;;9.84;100.00;99921.59;4969401;28;20046;-81
2022/09/14 01:18:06;;;;;;;5.63;2.42;;;;;;;9.79;100.00;99921.72;4994088;28;20053;-82
2022/09/14 01:20:39;;;;;;;3.20;2.35;;;;;;;9.79;100.00;99920.84;4970954;28;20039;-81
2022/09/14 01:23:39;;;;;;;3.45;2.00;;;;;;;9.76;100.00;99911.28;4976545;28;20034;-81
2022/09/14 01:26:50;;;;;;;4.07;1.90;;;;;;;9.69;100.00;99922.91;4988425;28;20514;-82
2022/09/14 01:29:17;;;;;;;3.70;2.30;;;;;;;9.67;100.00;99921.19;4986156;28;20046;-81
2022/09/14 01:32:13;;;;;;;4.25;2.38;;;;;;;9.80;100.00;99912.91;4984402;28;20085;-81
2022/09/14 01:34:45;;;;;;;2.85;1.90;;;;;;;9.75;100.00;99916.56;4977954;28;20452;-81
2022/09/14 01:37:21;;;;;;;3.88;1.98;;;;;;;9.71;100.00;99910.53;4991050;28;20050;-82
2022/09/14 01:39:52;;;;;;;5.93;2.10;;;;;;;9.67;100.00;99898.34;5010927;28;20042;-82
2022/09/14 01:42:22;;;;;;;4.60;2.05;;;;;;;9.72;100.00;99898.19;4967473;28;20126;-81
2022/09/14 01:44:52;;;;;;;13.48;2.72;;;;;;;9.75;100.00;99899.00;4976757;28;20413;-81
2022/09/14 01:47:42;;;;;;;2.90;2.10;;;;;;;9.56;100.00;99898.63;4976638;28;20064;-81
2022/09/14 01:50:14;;;;;;;3.42;1.80;;;;;;;9.46;100.00;99901.59;5001336;28;20503;-82
2022/09/14 01:53:11;;;;;;;3.35;2.53;;;;;;;9.43;100.00;99904.31;4973491;28;20074;-81
2022/09/14 01:55:43;;;;;;;5.80;2.78;;;;;;;9.37;100.00;99915.03;4955512;28;20129;-81
2022/09/14 01:58:15;;;;;;;3.40;2.13;;;;;;;9.40;100.00;99917.56;4992305;28;20069;-81
2022/09/14 02:00:44;;;;;;;6.07;2.03;;;;;;;9.31;100.00;99919.53;4988623;28;21098;-81
2022/09/14 02:03:15;;;;;;;6.65;2.17;;;;;;;9.36;100.00;99915.94;4999082;23;20064;-84
2022/09/14 02:05:49;;;;;;;3.17;2.08;;;;;;;9.35;100.00;99922.13;5014631;28;21631;-83
2022/09/14 02:08:16;;;;;;;4.25;2.10;;;;;;;9.34;100.00;99920.38;5016915;28;20498;-85
2022/09/14 02:10:42;;;;;;;2.67;1.88;;;;;;;9.28;100.00;99919.63;5017744;28;20094;-83
2022/09/14 02:13:09;;;;;;;6.18;1.98;;;;;;;9.25;100.00;99922.38;5000979;28;20103;-84
2022/09/14 02:15:36;;;;;;;4.68;2.15;;;;;;;9.27;100.00;99915.28;4995051;28;20088;-84
2022/09/14 02:18:03;;;;;;;3.25;2.00;;;;;;;9.31;100.00;99914.28;4993628;28;20041;-83
2022/09/14 02:20:39;;;;;;;3.50;1.75;;;;;;;9.32;100.00;99915.13;5014661;28;20087;-84
2022/09/14 02:23:06;;;;;;;3.10;1.90;;;;;;;9.20;100.00;99913.72;4995359;28;20042;-83
2022/09/14 02:25:35;;;;;;;4.15;2.47;;;;;;;9.17;100.00;99907.66;4996386;28;20049;-85
2022/09/14 02:28:18;;;;;;;3.92;1.90;;;;;;;9.15;100.00;99902.41;4949414;28;20498;-83
2022/09/14 02:31:13;;;;;;;5.22;2.20;;;;;;;9.07;100.00;99904.38;4940847;28;20043;-84
2022/09/14 02:34:15;;;;;;;3.67;2.03;;;;;;;9.08;100.00;99903.50;4946269;28;20047;-84
2022/09/14 02:36:59;;;;;;;4.25;2.25;;;;;;;9.12;100.00;99894.59;4927658;28;20152;-84
2022/09/14 02:39:56;;;;;;;5.78;1.90;;;;;;;9.08;100.00;99899.97;4924668;28;20039;-85
2022/09/14 02:42:50;;;;;;;2.78;1.70;;;;;;;9.07;100.00;99898.25;4930749;28;20058;-85
2022/09/14 02:45:28;;;;;;;3.20;2.40;;;;;;;9.07;100.00;99900.88;4972953;28;20049;-84
2022/09/14 02:48:12;;;;;;;3.45;2.13;;;;;;;9.10;100.00;99906.09;4939734;28;20092;-83
2022/09/14 02:50:44;;;;;;;4.45;2.05;;;;;;;9.17;100.00;99902.41;4939226;28;20106;-85
2022/09/14 02:53:26;;;;;;;5.20;2.10;;;;;;;9.19;100.00;99901.44;4945454;28;20050;-85
2022/09/14 02:55:57;;;;;;;3.53;2.30;;;;;;;9.23;100.00;99904.84;4920242;28;20057;-85
2022/09/14 02:58:24;;;;;;;3.60;2.30;;;;;;;9.26;100.00;99896.88;4938572;28;20057;-86
2022/09/14 03:00:50;;;;;;;4.00;2.65;;;;;;;9.26;100.00;99896.88;5014113;28;20601;-85
2022/09/14 03:03:19;;;;;;;4.70;2.30;;;;;;;9.30;100.00;99890.59;4999514;28;20490;-85
2022/09/14 03:05:46;;;;;;;5.00;3.05;;;;;;;9.34;100.00;99891.41;4995015;28;20056;-86
2022/09/14 03:08:13;;;;;;;5.25;2.55;;;;;;;9.36;100.00;99892.22;5002440;28;20046;-85
2022/09/14 03:10:43;;;;;;;4.72;2.38;;;;;;;9.36;100.00;99892.22;5019236;28;20421;-85
2022/09/14 03:13:10;;;;;;;5.10;1.90;;;;;;;9.38;100.00;99895.66;4996983;28;20463;-86
2022/09/14 03:15:37;;;;;;;7.65;2.97;;;;;;;9.40;100.00;99897.34;4998297;28;20045;-86
2022/09/14 03:18:06;;;;;;;4.10;2.50;;;;;;;9.40;100.00;99893.84;5000702;28;20041;-86
2022/09/14 03:20:37;;;;;;;3.78;2.25;;;;;;;9.41;100.00;99903.47;5056546;23;20077;-85
2022/09/14 03:23:06;;;;;;;4.70;2.40;;;;;;;9.36;100.00;99902.75;4978987;28;20077;-85
2022/09/14 03:25:37;;;;;;;4.90;2.40;;;;;;;9.34;100.00;99894.91;4973145;28;20507;-85
2022/09/14 03:28:04;;;;;;;3.38;2.15;;;;;;;9.37;100.00;99888.66;4966685;28;20051;-86
2022/09/14 03:30:31;;;;;;;4.03;2.53;;;;;;;9.33;100.00;99895.78;5004470;28;20097;-85
2022/09/14 03:32:58;;;;;;;5.32;2.70;;;;;;;9.33;100.00;99908.94;4982063;28;20054;-85
2022/09/14 03:35:27;;;;;;;3.30;1.88;;;;;;;9.40;100.00;99899.09;4946703;28;20092;-85
2022/09/14 03:37:54;;;;;;;4.75;2.42;;;;;;;9.37;100.00;99899.22;4975780;28;20488;-86
2022/09/14 03:40:20;;;;;;;4.72;2.75;;;;;;;9.45;100.00;99902.50;4968383;28;20042;-87
2022/09/14 03:42:49;;;;;;;3.47;2.30;;;;;;;9.40;100.00;99899.09;4941098;28;20105;-86
2022/09/14 03:45:16;;;;;;;8.13;2.83;;;;;;;9.46;100.00;99898.94;4974677;28;20089;-86
2022/09/14 03:47:43;;;;;;;4.60;2.72;;;;;;;9.49;100.00;99886.53;4958689;28;20085;-86
2022/09/14 03:50:14;;;;;;;5.00;2.47;;;;;;;9.45;100.00;99892.81;4960273;28;20439;-86
2022/09/14 03:52:40;;;;;;;6.82;2.42;;;;;;;9.44;100.00;99893.72;4971204;28;20054;-85
2022/09/14 03:55:08;;;;;;;3.22;2.28;;;;;;;9.41;100.00;99887.66;4960999;28;20046;-86
2022/09/14 03:57:35;;;;;;;4.65;2.45;;;;;;;9.42;100.00;99882.38;4957074;28;20408;-85
2022/09/14 04:00:04;;;;;;;5.75;2.35;;;;;;;9.44;100.00;99880.53;4988594;28;20105;-86
2022/09/14 04:02:31;;;;;;;7.20;2.80;;;;;;;9.37;100.00;99878.13;4977156;28;20046;-84
2022/09/14 04:04:58;;;;;;;8.20;2.33;;;;;;;9.38;100.00;99883.34;4975652;28;20044;-84
2022/09/14 04:07:25;;;;;;;4.50;2.72;;;;;;;9.35;100.00;99878.16;4957003;28;20046;-84
2022/09/14 04:09:51;;;;;;;5.50;2.55;;;;;;;9.35;100.00;99875.53;4975899;28;20057;-85
2022/09/14 04:12:18;;;;;;;5.43;2.80;;;;;;;9.33;100.00;99877.31;4989749;28;20046;-85
2022/09/14 04:14:45;;;;;;;6.47;2.30;;;;;;;9.32;100.00;99873.81;4956414;28;20105;-86
2022/09/14 04:17:11;;;;;;;2.97;2.30;;;;;;;9.29;100.00;99875.69;4954039;28;20094;-86
2022/09/14 04:19:40;;;;;;;4.95;2.38;;;;;;;9.25;100.00;99874.06;4963174;28;20043;-86
2022/09/14 04:22:07;;;;;;;5.60;2.50;;;;;;;9.26;100.00;99874.00;4968682;28;20041;-87
2022/09/14 04:24:34;;;;;;;3.78;2.63;;;;;;;9.29;100.00;99871.28;4960445;28;20042;-86
2022/09/14 04:27:00;;;;;;;12.80;4.00;;;;;;;9.24;100.00;99867.91;4955347;28;20046;-85
2022/09/14 04:29:29;;;;;;;7.60;2.55;;;;;;;9.27;100.00;99870.47;4971601;28;20042;-86
2022/09/14 04:31:56;;;;;;;5.03;2.55;;;;;;;9.33;100.00;99874.69;4952742;28;20042;-85
2022/09/14 04:34:23;;;;;;;3.78;2.53;;;;;;;9.25;100.00;99882.84;4983549;28;20050;-86
2022/09/14 04:36:50;;;;;;;6.43;2.70;;;;;;;9.24;100.00;99883.72;4968948;28;20050;-86
2022/09/14 04:39:17;;;;;;;4.45;2.78;;;;;;;9.20;100.00;99884.72;4975884;28;20096;-86
2022/09/14 04:41:43;;;;;;;4.80;2.53;;;;;;;9.30;100.00;99882.69;4976785;28;20042;-84
2022/09/14 04:44:10;;;;;;;3.15;2.45;;;;;;;9.28;100.00;99884.50;4971793;28;20050;-84
2022/09/14 04:46:38;;;;;;;4.72;2.80;;;;;;;9.29;100.00;99892.38;5005768;28;20455;-84
2022/09/14 04:49:12;;;;;;;6.15;2.47;;;;;;;9.31;100.00;99892.31;4976284;28;20073;-84
2022/09/14 04:51:39;;;;;;;4.63;2.88;;;;;;;9.32;100.00;99894.03;4957271;28;20038;-85
2022/09/14 04:54:06;;;;;;;6.30;2.70;;;;;;;9.32;100.00;99891.41;4970122;28;20053;-85
2022/09/14 04:56:35;;;;;;;4.72;2.28;;;;;;;9.30;100.00;99886.19;4991266;28;20050;-85
2022/09/14 04:59:03;;;;;;;4.50;2.67;;;;;;;9.34;100.00;99887.00;4956074;28;20042;-84
2022/09/14 05:01:33;;;;;;;4.70;2.47;;;;;;;9.38;100.00;99887.75;4950090;28;20081;-84
2022/09/14 05:04:00;;;;;;;5.25;3.10;;;;;;;9.38;100.00;99891.25;4960521;28;20061;-85
2022/09/14 05:06:29;;;;;;;3.75;2.30;;;;;;;9.42;100.00;99898.19;4956014;28;20043;-85
2022/09/14 05:08:56;;;;;;;4.75;2.45;;;;;;;9.47;100.00;99887.50;4974247;28;20093;-85
2022/09/14 05:11:25;;;;;;;4.93;2.90;;;;;;;9.53;100.00;99889.97;4958213;28;20050;-84
2022/09/14 05:13:54;;;;;;;6.57;3.38;;;;;;;9.58;100.00;99882.75;4971850;28;20105;-84
2022/09/14 05:16:25;;;;;;;6.65;3.05;;;;;;;9.66;100.00;99890.47;4973266;28;20105;-87
2022/09/14 05:19:02;;;;;;;4.60;2.60;;;;;;;9.74;100.00;99889.31;4971567;28;20106;-85
2022/09/14 05:21:30;;;;;;;4.78;2.90;;;;;;;9.73;100.00;99884.09;4972943;28;20254;-86
2022/09/14 05:24:02;;;;;;;5.13;2.53;;;;;;;9.73;100.00;99877.06;4954875;28;20046;-84
2022/09/14 05:26:30;;;;;;;3.90;2.28;;;;;;;9.79;100.00;99881.28;4953795;28;20563;-85
2022/09/14 05:28:58;;;;;;;5.10;2.55;;;;;;;9.79;100.00;99865.47;4967477;28;20104;-84
2022/09/14 05:31:26;;;;;;;10.45;3.17;;;;;;;9.87;100.00;99871.38;4953367;28;20053;-84
2022/09/14 05:33:53;;;;;;;7.15;2.67;;;;;;;9.89;100.00;99872.19;4954593;28;20042;-84
2022/09/14 05:36:20;;;;;;;5.30;2.50;;;;;;;9.95;100.00;99884.34;4953530;28;20046;-83
2022/09/14 05:38:47;;;;;;;7.55;2.85;;;;;;;10.03;100.00;99880.56;4972821;28;20085;-84
2022/09/14 05:41:14;;;;;;;5.47;2.53;;;;;;;10.12;100.00;99885.53;4949972;28;20038;-84
2022/09/14 05:43:42;;;;;;;5.00;2.65;;;;;;;10.16;100.00;99881.88;4968963;28;20577;-84
2022/09/14 05:46:14;;;;;;;7.68;2.78;;;;;;;10.24;100.00;99876.41;4954324;28;20043;-85
2022/09/14 05:48:41;;;;;;;3.85;2.42;;;;;;;10.32;100.00;99877.03;4966615;28;20054;-85
2022/09/14 05:51:14;;;;;;;4.78;2.90;;;;;;;10.44;100.00;99865.22;4963840;28;20034;-85
2022/09/14 05:53:42;;;;;;;5.10;2.55;;;;;;;10.47;100.00;99872.16;4970967;28;20483;-85
2022/09/14 05:56:11;;;;;;;3.80;2.78;;;;;;;10.54;100.00;99874.56;4972501;28;21324;-83
2022/09/14 05:58:38;;;;;;;5.28;2.78;;;;;;;10.65;100.00;99871.56;4974395;28;20100;-84
2022/09/14 06:01:17;;;;;;;4.13;2.38;;;;;;;10.67;100.00;99862.66;4973513;28;20034;-85
2022/09/14 06:03:45;;;;;;;6.10;2.97;;;;;;;10.88;100.00;99865.50;4970138;28;20082;-85
2022/09/14 06:06:13;;;;;;;6.75;2.70;;;;;;;10.99;100.00;99868.63;4952783;28;20055;-84
2022/09/14 06:08:41;;;;;;;5.97;2.80;;;;;;;11.01;100.00;99861.50;4976966;28;20050;-84
2022/09/14 06:11:10;;;;;;;4.63;2.50;;;;;;;11.11;100.00;99868.22;4955163;28;20039;-84
2022/09/14 06:13:37;;;;;;;8.77;2.70;;;;;;;11.18;100.00;99864.44;4955711;28;20487;-84
2022/09/14 06:16:15;;;;;;;3.92;2.28;;;;;;;11.28;100.00;99860.53;4956507;28;20046;-84
2022/09/14 06:18:43;;;;;;;4.88;2.58;;;;;;;11.40;100.00;99861.00;4990994;28;20042;-84
2022/09/14 06:21:14;;;;;;;5.25;2.88;;;;;;;11.44;100.00;99857.34;4982552;28;20039;-84
2022/09/14 06:23:40;;;;;;;3.72;2.10;;;;;;;11.59;100.00;99851.47;4971618;28;20038;-85
2022/09/14 06:26:07;;;;;;;5.38;3.10;;;;;;;11.77;100.00;99841.97;4967008;28;20562;-84
2022/09/14 06:28:34;;;;;;;6.18;2.30;;;;;;;11.98;100.00;99851.75;4977233;28;20093;-83
2022/09/14 06:31:06;;;;;;;5.13;2.33;;;;;;;12.39;100.00;99850.13;4958748;28;20050;-85
2022/09/14 06:33:33;;;;;;;7.35;2.25;;;;;;;13.11;100.00;99843.53;4976508;28;20050;-84
2022/09/14 06:36:10;;;;;;;3.20;1.73;;;;;;;14.07;100.00;99850.66;4972479;28;20046;-84
2022/09/14 06:38:37;;;;;;;6.05;2.35;;;;;;;15.06;100.00;99846.69;4990182;28;20120;-84
2022/09/14 06:41:05;;;;;;;4.25;1.52;;;;;;;15.80;100.00;99841.81;4959832;28;20054;-86
2022/09/14 06:43:34;;;;;;;6.65;1.67;;;;;;;16.43;100.00;99838.28;4980612;28;20046;-84
2022/09/14 06:46:10;;;;;;;3.03;1.50;;;;;;;16.43;100.00;99840.97;4958053;28;20038;-83
2022/09/14 06:48:38;;;;;;;;;;;;;;;16.33;100.00;99845.97;4960681;28;20073;-83
2022/09/14 06:51:17;;;;;;;6.07;1.98;;;;;;;16.30;98.28;99849.63;4959146;28;20264;-83
2022/09/14 06:53:44;;;;;;;4.88;2.38;;;;;;;15.98;95.82;99856.81;4975306;28;20047;-84
2022/09/14 06:56:11;;;;;;;3.38;1.90;;;;;;;15.79;100.00;99858.75;4984324;28;20043;-84
2022/09/14 06:58:38;;;;;;;4.47;1.95;;;;;;;15.60;100.00;99856.19;4957822;28;20129;-85
2022/09/14 07:01:07;;;;;;;5.43;1.98;;;;;;;15.44;100.00;99855.28;4974643;28;20266;-83
2022/09/14 07:03:36;;;;;;;4.90;2.00;;;;;;;15.35;100.00;99853.97;4953710;28;20049;-84
2022/09/14 07:06:08;;;;;;;4.28;2.35;;;;;;;15.28;100.00;99855.22;4968760;28;20049;-85
2022/09/14 07:08:36;;;;;;;4.85;1.90;;;;;;;15.15;100.00;99865.69;4975134;28;20164;-85
2022/09/14 07:11:04;;;;;;;5.28;1.65;;;;;;;15.02;100.00;99859.25;4973662;28;20093;-83
2022/09/14 07:13:31;;;;;;;4.70;1.88;;;;;;;14.99;100.00;99859.41;4974875;28;20515;-84
2022/09/14 07:15:57;;;;;;;4.75;1.77;;;;;;;14.87;100.00;99862.69;4967949;28;20625;-84
2022/09/14 07:18:27;;;;;;;4.93;1.80;;;;;;;14.81;100.00;99855.06;4964501;28;20731;-84
2022/09/14 07:20:54;;;;;;;4.20;2.10;;;;;;;14.83;100.00;99853.16;4953209;28;20496;-83
2022/09/14 07:23:21;;;;;;;6.43;1.90;;;;;;;14.80;100.00;99861.31;4974060;28;20414;-84
2022/09/14 07:25:47;;;;;;;4.95;1.83;;;;;;;14.71;100.00;99859.94;4976594;28;20464;-84
2022/09/14 07:28:14;;;;;;;5.85;2.53;;;;;;;14.82;100.00;99859.41;4953617;28;20042;-84
2022/09/14 07:30:41;;;;;;;5.97;2.20;;;;;;;14.77;100.00;99858.78;4970063;28;20038;-85
2022/09/14 07:33:08;;;;;;;6.15;1.67;;;;;;;14.61;100.00;99856.03;4991131;28;20046;-85
2022/09/14 07:35:35;;;;;;;5.72;1.80;;;;;;;14.66;100.00;99853.16;4972782;28;20519;-85
2022/09/14 07:38:01;;;;;;;4.30;1.70;;;;;;;14.72;100.00;99844.88;4974449;28;20046;-83
2022/09/14 07:40:28;;;;;;;3.72;1.73;;;;;;;14.66;100.00;99842.53;4990059;28;20038;-85
2022/09/14 07:42:55;;;;;;;3.65;1.67;;;;;;;14.74;100.00;99845.66;4974380;28;20038;-84
2022/09/14 07:45:23;;;;;;;3.95;1.65;;;;;;;14.89;100.00;99858.19;4960134;28;20073;-84
2022/09/14 07:47:50;;;;;;;4.00;1.70;;;;;;;14.92;100.00;99860.66;4970498;28;20412;-84
2022/09/14 07:50:17;;;;;;;5.50;1.60;;;;;;;15.02;100.00;99848.63;4983879;28;20518;-83
2022/09/14 07:52:44;;;;;;;8.02;2.60;;;;;;;14.99;100.00;99851.44;4973224;28;20054;-84
2022/09/14 07:55:11;;;;;;;5.47;2.17;;;;;;;15.07;100.00;99851.06;4974099;28;20104;-82
2022/09/14 07:57:38;;;;;;;5.03;1.98;;;;;;;15.20;100.00;99860.97;4972860;28;20411;-84
2022/09/14 08:00:22;;;;;;;9.63;2.28;;;;;;;15.29;100.00;99848.97;4990118;28;20050;-85
2022/09/14 08:02:53;;;;;;;5.70;1.70;;;;;;;15.39;100.00;99858.22;4951621;28;20069;-84
2022/09/14 08:05:24;;;;;;;5.47;2.42;;;;;;;15.45;100.00;99854.34;4957721;28;20109;-84
2022/09/14 08:07:54;;;;;;;5.80;1.77;;;;;;;15.46;100.00;99850.72;4988021;23;20042;-81
2022/09/14 08:10:22;;;;;;;7.30;2.50;;;;;;;15.55;100.00;99860.03;4998974;28;20073;-81
2022/09/14 08:12:53;;;;;;;4.88;2.33;;;;;;;15.57;100.00;99853.69;4976942;28;20050;-81
2022/09/14 08:15:21;;;;;;;5.75;1.73;;;;;;;15.59;100.00;99861.59;4992208;28;20050;-81
2022/09/14 08:17:54;;;;;;;;;;;;;;;15.67;100.00;99859.41;4977684;28;20070;-81
2022/09/14 08:20:21;;;;;;;5.60;1.40;;;;;;;15.70;100.00;99862.75;4992249;28;20369;-81
2022/09/14 08:22:47;;;;;;;5.25;2.30;;;;;;;15.71;100.00;99853.81;4971328;28;20042;-81
2022/09/14 08:25:14;;;;;;;2.00;1.58;;;;;;;15.75;100.00;99857.19;4959675;28;20053;-82
2022/09/14 08:27:41;;;;;;;5.53;2.10;;;;;;;15.89;100.00;99854.66;4972872;28;20050;-82
2022/09/14 08:30:12;;;;;;;4.60;2.00;;;;;;;15.85;100.00;99854.88;4976000;28;20046;-83
2022/09/14 08:32:44;;;;;;;7.90;2.05;;;;;;;16.03;100.00;99861.84;4970211;28;20102;-84
2022/09/14 08:35:11;;;;;;;7.28;1.88;;;;;;;16.19;100.00;99860.06;4965343;28;20502;-83
2022/09/14 08:37:37;;;;;;;7.07;1.90;;;;;;;16.51;100.00;99862.69;4981520;28;20046;-84
2022/09/14 08:40:04;;;;;;;6.55;1.80;;;;;;;16.58;97.75;99851.59;4974575;28;20512;-84
2022/09/14 08:42:31;;;;;;;6.63;2.30;;;;;;;16.68;98.31;99851.91;4969141;28;20054;-83
2022/09/14 08:45:01;;;;;;;3.90;1.50;;;;;;;16.73;98.62;99847.22;4988413;28;20043;-84
2022/09/14 08:47:38;;;;;;;4.03;1.90;;;;;;;16.82;97.39;99845.81;4954769;28;20898;-84
2022/09/14 08:50:09;;;;;;;7.85;2.00;;;;;;;16.79;92.42;99840.63;4971966;28;20082;-83
2022/09/14 08:52:39;;;;;;;4.75;1.50;;;;;;;16.81;94.79;99844.94;4955387;28;20056;-83
2022/09/14 08:55:18;;;;;;;7.28;2.20;;;;;;;16.92;91.57;99841.66;4990748;28;20042;-83
2022/09/14 08:57:53;;;;;;;4.43;1.65;;;;;;;17.06;89.32;99838.13;4957821;28;20097;-83
2022/09/14 09:00:22;;;;;;;6.45;2.08;;;;;;;17.05;88.04;99831.06;4973903;28;20049;-84
2022/09/14 09:03:23;;;;;;;5.18;1.98;;;;;;;16.96;89.55;99840.50;4990180;28;20053;-82
2022/09/14 09:06:14;;;;;;;6.88;1.92;;;;;;;16.85;92.57;99842.94;4984742;28;20054;-84
2022/09/14 09:08:52;;;;;;;4.75;1.77;;;;;;;16.86;93.03;99840.19;4987846;28;20058;-83
2022/09/14 09:11:20;;;;;;;5.68;2.20;;;;;;;16.97;92.65;99825.34;4973633;28;20038;-84
2022/09/14 09:13:48;;;;;;;8.15;2.00;;;;;;;17.14;91.14;99831.38;4979143;28;20042;-83
2022/09/14 09:16:18;;;;;;;5.55;1.90;;;;;;;17.17;90.62;99833.03;4973571;28;20050;-85
2022/09/14 09:19:01;;;;;;;7.43;2.05;;;;;;;17.31;87.87;99832.16;4978634;28;20491;-84
2022/09/14 09:21:30;;;;;;;6.40;1.83;;;;;;;17.44;85.27;99833.13;4977864;28;20037;-83
2022/09/14 09:24:15;;;;;;;4.50;2.03;;;;;;;17.45;79.38;99838.38;4984731;28;20034;-83
2022/09/14 09:26:42;;;;;;;8.10;2.33;;;;;;;17.65;82.02;99829.09;4993559;28;20425;-82
2022/09/14 09:29:10;;;;;;;7.63;2.50;;;;;;;17.92;78.34;99825.69;4956159;28;20051;-84
2022/09/14 09:31:41;;;;;;;8.57;1.92;;;;;;;18.12;75.55;99819.91;4966744;28;20125;-83
2022/09/14 09:34:13;;;;;;;5.55;2.20;;;;;;;18.22;72.46;99831.72;4976618;28;20101;-84
2022/09/14 09:36:42;;;;;;;7.00;2.35;;;;;;;18.20;69.31;99830.97;4963893;28;20424;-84
2022/09/14 09:39:09;;;;;;;6.65;1.90;;;;;;;18.32;72.33;99840.00;4960506;28;20050;-83
2022/09/14 09:41:54;;;;;;;5.75;1.90;;;;;;;18.29;69.12;99845.56;4965671;28;20038;-83
2022/09/14 09:44:20;;;;;;;5.65;1.58;;;;;;;18.15;67.96;99826.88;4994050;28;20517;-83
2022/09/14 09:46:50;;;;;;;3.22;1.25;;;;;;;18.18;69.25;99821.34;4963248;28;20050;-83
2022/09/14 09:49:22;;;;;;;6.78;1.83;;;;;;;18.36;69.95;99821.94;4977712;28;20522;-83
2022/09/14 09:51:49;;;;;;;6.50;2.15;;;;;;;18.66;68.43;99814.56;5002887;28;20506;-82
2022/09/14 09:54:22;;;;;;;4.63;2.03;;;;;;;18.86;67.88;99820.41;5012003;28;20108;-82
2022/09/14 09:57:02;;;;;;;4.55;2.05;;;;;;;19.21;66.96;99807.28;4980831;28;20039;-84
2022/09/14 09:59:40;;;;;;;3.85;2.38;;;;;;;19.32;63.45;99791.28;4977746;28;20096;-82
2022/09/14 10:02:29;;;;;;;5.40;2.20;;;;;;;19.65;62.34;99807.69;4973737;28;20499;-83
2022/09/14 10:05:19;;;;;;;3.50;1.63;;;;;;;19.62;59.69;99801.72;4964923;28;20596;-83
2022/09/14 10:07:48;;;;;;;5.55;1.77;;;;;;;19.58;58.43;99811.78;4975066;28;20093;-84
2022/09/14 10:10:17;;;;;;;5.25;1.65;;;;;;;19.52;57.32;99804.16;4977109;28;20093;-84
2022/09/14 10:12:49;;;;;;;5.72;1.73;;;;;;;19.03;59.12;99812.94;4976131;28;20046;-84
2022/09/14 10:15:20;;;;;;;3.35;1.55;;;;;;;18.75;60.88;99811.31;4983417;28;20447;-84
2022/09/14 10:18:05;;;;;;;6.50;2.20;;;;;;;18.41;62.92;99801.94;4989710;28;20066;-83
2022/09/14 10:20:32;;;;;;;5.28;1.85;;;;;;;18.34;63.64;99807.84;4973126;28;20043;-83
2022/09/14 10:23:20;;;;;;;3.53;1.70;;;;;;;18.28;62.32;99798.38;4990919;28;20129;-83
2022/09/14 10:25:49;;;;;;;8.75;1.73;;;;;;;18.45;64.70;99787.41;4973055;28;20140;-83
2022/09/14 10:28:42;;;;;;;4.03;1.70;;;;;;;18.59;59.18;99791.84;4975148;28;20044;-83
2022/09/14 10:31:18;;;;;;;4.78;1.50;;;;;;;18.78;60.25;99795.03;4992583;28;20108;-81
2022/09/14 10:33:48;;;;;;;4.43;2.00;;;;;;;18.71;60.85;99795.53;4979249;28;20719;-83
2022/09/14 10:36:14;;;;;;;5.00;1.95;;;;;;;18.43;58.74;99786.69;4972371;28;20093;-83
2022/09/14 10:38:51;;;;;;;4.60;2.65;;;;;;;18.41;63.31;99791.25;4977379;28;20050;-83
2022/09/14 10:41:30;;;;;;;5.97;1.73;;;;;;;18.37;61.99;99792.44;4968896;28;20042;-83
2022/09/14 10:44:30;;;;;;;6.15;1.58;;;;;;;18.03;62.07;99795.59;4972447;28;20050;-83
2022/09/14 10:47:25;;;;;;;3.97;1.73;;;;;;;18.07;66.57;99787.25;4987438;28;20095;-83
2022/09/14 10:50:07;;;;;;;4.72;1.50;;;;;;;18.18;68.48;99789.25;4996794;28;20039;-82
2022/09/14 10:52:53;;;;;;;4.32;2.25;;;;;;;18.26;65.84;99784.25;4991000;28;20046;-83
2022/09/14 10:55:30;;;;;;;4.57;1.85;;;;;;;18.35;63.57;99786.34;4974533;28;20058;-83
2022/09/14 10:58:03;;;;;;;4.55;1.63;;;;;;;18.32;65.05;99782.97;4974186;28;20070;-83
2022/09/14 11:00:39;;;;;;;5.50;2.00;;;;;;;18.36;64.46;99782.69;5004125;28;20050;-82
2022/09/14 11:03:43;;;;;;;5.55;2.05;;;;;;;18.45;64.80;99781.22;4972292;28;20104;-83
2022/09/14 11:06:36;;;;;;;4.35;1.52;;;;;;;18.40;64.19;99775.31;4988411;28;20073;-83
2022/09/14 11:09:26;;;;;;;3.83;1.85;;;;;;;18.72;65.77;99770.50;4975828;28;20096;-82
2022/09/14 11:12:02;;;;;;;4.18;1.90;;;;;;;18.98;64.02;99763.34;4974935;28;20046;-83
2022/09/14 11:14:56;;;;;;;4.88;2.00;;;;;;;19.33;60.50;99763.53;4992470;28;20096;-82
2022/09/14 11:17:41;;;;;;;;;;;;;;;19.19;59.76;99747.63;4983593;28;20046;-83
2022/09/14 11:20:14;;;;;;;;;;;;;;;18.90;58.47;99753.16;4992939;28;20441;-82
2022/09/14 11:23:12;;;;;;;6.30;2.13;;;;;;;18.74;60.72;99760.53;4987267;28;19932;-82
2022/09/14 11:25:47;;;;;;;3.17;1.40;;;;;;;18.96;63.27;99770.63;4956260;28;20047;-82
2022/09/14 11:28:33;;;;;;;4.47;1.40;;;;;;;19.10;60.54;99762.50;4974899;28;20067;-85
2022/09/14 11:31:05;;;;;;;3.33;1.60;;;;;;;19.03;60.03;99754.03;4972287;28;20034;-81
2022/09/14 11:33:53;;;;;;;3.13;1.45;;;;;;;18.88;62.22;99752.44;4983220;28;20042;-82
2022/09/14 11:36:25;;;;;;;4.40;2.10;;;;;;;18.69;63.78;99766.22;4973104;28;20133;-81
2022/09/14 11:38:59;;;;;;;4.32;1.92;;;;;;;18.58;62.28;99763.38;5007372;28;20419;-81
2022/09/14 11:41:40;;;;;;;6.15;1.77;;;;;;;18.57;64.41;99765.19;4974091;28;20125;-81
2022/09/14 11:44:22;;;;;;;4.07;1.33;;;;;;;18.80;64.08;99768.16;4989815;28;20042;-82
2022/09/14 11:47:11;;;;;;;4.20;1.98;;;;;;;18.97;65.49;99758.97;4973741;28;20389;-82
2022/09/14 11:50:09;;;;;;;4.50;1.40;;;;;;;19.05;64.06;99762.81;4970161;28;20054;-82
2022/09/14 11:52:36;;;;;;;3.80;1.40;;;;;;;18.93;64.25;99771.72;4978630;28;20498;-82
2022/09/14 11:55:08;;;;;;;3.70;1.42;;;;;;;18.87;62.91;99768.59;4990964;28;20038;-82
2022/09/14 11:57:35;;;;;;;6.28;2.00;;;;;;;18.71;61.74;99766.97;4989547;28;20053;-82